sensor_id;sensor_type;location;lat;lon;timestamp;P1;durP1;ratioP1;P2;durP2;ratioP2
14167;SDS011;7163;50.626;12.922;2023-11-18T00:03:06;16.80;;;11.40;;
14167;SDS011;7163;50.626;12.922;2023-11-18T00:08:09;24.87;;;14.40;;
14167;SDS011;7163;50.626;12.922;2023-11-18T00:13:10;26.80;;;14.30;;
14167;SDS011;7163;50.626;12.922;2023-11-18T00:28:31;20.93;;;12.73;;
14167;SDS011;7163;50.626;12.922;2023-11-18T00:33:31;24.23;;;13.68;;
14167;SDS011;7163;50.626;12.922;2023-11-18T00:38:32;19.87;;;12.43;;
14167;SDS011;7163;50.626;12.922;2023-11-18T00:43:32;21.70;;;12.23;;
14167;SDS011;7163;50.626;12.922;2023-11-18T00:48:32;20.40;;;12.67;;
14167;SDS011;7163;50.626;12.922;2023-11-18T00:53:33;22.47;;;13.40;;
14167;SDS011;7163;50.626;12.922;2023-11-18T00:58:33;26.58;;;14.13;;
14167;SDS011;7163;50.626;12.922;2023-11-18T01:03:36;26.60;;;13.37;;
14167;SDS011;7163;50.626;12.922;2023-11-18T01:08:38;22.53;;;12.37;;
14167;SDS011;7163;50.626;12.922;2023-11-18T01:13:39;25.43;;;13.03;;
14167;SDS011;7163;50.626;12.922;2023-11-18T01:18:40;24.80;;;13.10;;
14167;SDS011;7163;50.626;12.922;2023-11-18T01:23:40;24.50;;;13.47;;
14167;SDS011;7163;50.626;12.922;2023-11-18T01:28:42;22.00;;;13.13;;
14167;SDS011;7163;50.626;12.922;2023-11-18T01:33:45;26.13;;;13.57;;
14167;SDS011;7163;50.626;12.922;2023-11-18T01:38:45;26.30;;;14.43;;
14167;SDS011;7163;50.626;12.922;2023-11-18T01:43:46;23.20;;;13.53;;
14167;SDS011;7163;50.626;12.922;2023-11-18T01:48:46;25.73;;;14.67;;
14167;SDS011;7163;50.626;12.922;2023-11-18T01:53:47;25.40;;;14.03;;
14167;SDS011;7163;50.626;12.922;2023-11-18T01:58:47;26.87;;;14.67;;
14167;SDS011;7163;50.626;12.922;2023-11-18T02:03:49;35.77;;;15.60;;
14167;SDS011;7163;50.626;12.922;2023-11-18T02:08:50;30.20;;;16.70;;
14167;SDS011;7163;50.626;12.922;2023-11-18T02:13:50;30.40;;;16.17;;
14167;SDS011;7163;50.626;12.922;2023-11-18T02:18:53;32.40;;;16.47;;
14167;SDS011;7163;50.626;12.922;2023-11-18T02:23:54;30.93;;;17.43;;
14167;SDS011;7163;50.626;12.922;2023-11-18T02:28:54;32.20;;;17.27;;
14167;SDS011;7163;50.626;12.922;2023-11-18T02:33:57;30.15;;;16.95;;
14167;SDS011;7163;50.626;12.922;2023-11-18T02:39:00;31.47;;;18.57;;
14167;SDS011;7163;50.626;12.922;2023-11-18T02:44:02;34.93;;;19.13;;
14167;SDS011;7163;50.626;12.922;2023-11-18T02:49:03;37.30;;;19.10;;
14167;SDS011;7163;50.626;12.922;2023-11-18T02:54:04;37.70;;;20.33;;
14167;SDS011;7163;50.626;12.922;2023-11-18T02:59:05;35.90;;;18.90;;
14167;SDS011;7163;50.626;12.922;2023-11-18T03:04:05;33.53;;;18.53;;
14167;SDS011;7163;50.626;12.922;2023-11-18T03:09:06;37.33;;;20.90;;
14167;SDS011;7163;50.626;12.922;2023-11-18T03:14:08;34.13;;;18.97;;
14167;SDS011;7163;50.626;12.922;2023-11-18T03:24:17;34.67;;;18.07;;
14167;SDS011;7163;50.626;12.922;2023-11-18T03:29:17;34.00;;;18.48;;
14167;SDS011;7163;50.626;12.922;2023-11-18T03:34:18;30.00;;;17.03;;
14167;SDS011;7163;50.626;12.922;2023-11-18T03:39:22;34.73;;;19.07;;
14167;SDS011;7163;50.626;12.922;2023-11-18T03:44:23;32.90;;;19.60;;
14167;SDS011;7163;50.626;12.922;2023-11-18T03:49:24;33.03;;;19.43;;
14167;SDS011;7163;50.626;12.922;2023-11-18T03:54:24;37.83;;;20.17;;
14167;SDS011;7163;50.626;12.922;2023-11-18T03:59:25;29.67;;;17.27;;
14167;SDS011;7163;50.626;12.922;2023-11-18T04:04:26;34.13;;;19.70;;
14167;SDS011;7163;50.626;12.922;2023-11-18T04:09:26;37.65;;;20.35;;
14167;SDS011;7163;50.626;12.922;2023-11-18T04:14:27;34.30;;;17.53;;
14167;SDS011;7163;50.626;12.922;2023-11-18T04:19:27;25.90;;;15.43;;
14167;SDS011;7163;50.626;12.922;2023-11-18T04:24:27;28.07;;;15.77;;
14167;SDS011;7163;50.626;12.922;2023-11-18T04:29:27;28.57;;;15.63;;
14167;SDS011;7163;50.626;12.922;2023-11-18T04:34:28;26.50;;;15.85;;
14167;SDS011;7163;50.626;12.922;2023-11-18T04:39:28;32.13;;;16.95;;
14167;SDS011;7163;50.626;12.922;2023-11-18T04:44:30;35.43;;;18.83;;
14167;SDS011;7163;50.626;12.922;2023-11-18T04:49:31;31.53;;;17.43;;
14167;SDS011;7163;50.626;12.922;2023-11-18T04:54:31;35.80;;;19.13;;
14167;SDS011;7163;50.626;12.922;2023-11-18T04:59:31;26.00;;;14.37;;
14167;SDS011;7163;50.626;12.922;2023-11-18T05:04:32;32.20;;;16.90;;
14167;SDS011;7163;50.626;12.922;2023-11-18T05:09:32;30.37;;;16.57;;
14167;SDS011;7163;50.626;12.922;2023-11-18T05:14:32;33.53;;;17.00;;
14167;SDS011;7163;50.626;12.922;2023-11-18T05:19:32;30.33;;;16.47;;
14167;SDS011;7163;50.626;12.922;2023-11-18T05:24:33;31.03;;;16.33;;
14167;SDS011;7163;50.626;12.922;2023-11-18T05:29:33;32.20;;;16.70;;
14167;SDS011;7163;50.626;12.922;2023-11-18T05:34:34;32.13;;;17.07;;
14167;SDS011;7163;50.626;12.922;2023-11-18T05:39:35;32.37;;;18.33;;
14167;SDS011;7163;50.626;12.922;2023-11-18T05:44:42;32.80;;;19.67;;
14167;SDS011;7163;50.626;12.922;2023-11-18T05:49:43;31.50;;;18.35;;
14167;SDS011;7163;50.626;12.922;2023-11-18T05:54:44;38.90;;;20.10;;
14167;SDS011;7163;50.626;12.922;2023-11-18T05:59:45;43.23;;;21.83;;
14167;SDS011;7163;50.626;12.922;2023-11-18T06:04:48;36.03;;;19.63;;
14167;SDS011;7163;50.626;12.922;2023-11-18T06:09:49;37.30;;;21.23;;
14167;SDS011;7163;50.626;12.922;2023-11-18T06:14:50;33.20;;;18.70;;
14167;SDS011;7163;50.626;12.922;2023-11-18T06:19:51;36.80;;;19.07;;
14167;SDS011;7163;50.626;12.922;2023-11-18T06:24:52;36.93;;;19.40;;
14167;SDS011;7163;50.626;12.922;2023-11-18T06:29:52;35.30;;;19.97;;
14167;SDS011;7163;50.626;12.922;2023-11-18T06:34:54;47.73;;;25.60;;
14167;SDS011;7163;50.626;12.922;2023-11-18T06:39:55;86.00;;;37.23;;
14167;SDS011;7163;50.626;12.922;2023-11-18T06:44:56;69.07;;;32.50;;
14167;SDS011;7163;50.626;12.922;2023-11-18T06:49:57;62.40;;;29.73;;
14167;SDS011;7163;50.626;12.922;2023-11-18T06:54:59;48.37;;;24.30;;
14167;SDS011;7163;50.626;12.922;2023-11-18T06:59:59;58.17;;;30.30;;
14167;SDS011;7163;50.626;12.922;2023-11-18T07:04:59;49.57;;;27.90;;
14167;SDS011;7163;50.626;12.922;2023-11-18T07:10:00;51.20;;;27.60;;
14167;SDS011;7163;50.626;12.922;2023-11-18T07:15:01;50.53;;;27.67;;
14167;SDS011;7163;50.626;12.922;2023-11-18T07:20:01;42.13;;;20.90;;
14167;SDS011;7163;50.626;12.922;2023-11-18T07:25:04;36.13;;;20.70;;
14167;SDS011;7163;50.626;12.922;2023-11-18T07:30:06;68.03;;;33.43;;
14167;SDS011;7163;50.626;12.922;2023-11-18T07:35:11;53.10;;;27.83;;
14167;SDS011;7163;50.626;12.922;2023-11-18T07:40:12;48.80;;;26.50;;
14167;SDS011;7163;50.626;12.922;2023-11-18T07:45:12;53.17;;;28.50;;
14167;SDS011;7163;50.626;12.922;2023-11-18T07:50:18;79.60;;;40.93;;
14167;SDS011;7163;50.626;12.922;2023-11-18T07:55:20;93.93;;;46.37;;
14167;SDS011;7163;50.626;12.922;2023-11-18T08:00:23;45.10;;;22.73;;
14167;SDS011;7163;50.626;12.922;2023-11-18T08:05:24;47.60;;;25.53;;
14167;SDS011;7163;50.626;12.922;2023-11-18T08:10:24;53.33;;;30.75;;
14167;SDS011;7163;50.626;12.922;2023-11-18T08:15:26;39.47;;;21.00;;
14167;SDS011;7163;50.626;12.922;2023-11-18T08:20:29;33.20;;;18.90;;
14167;SDS011;7163;50.626;12.922;2023-11-18T08:25:31;33.93;;;19.63;;
14167;SDS011;7163;50.626;12.922;2023-11-18T08:30:34;35.87;;;19.33;;
14167;SDS011;7163;50.626;12.922;2023-11-18T08:35:35;25.30;;;15.87;;
14167;SDS011;7163;50.626;12.922;2023-11-18T08:40:35;34.00;;;18.67;;
14167;SDS011;7163;50.626;12.922;2023-11-18T08:45:35;26.30;;;15.67;;
14167;SDS011;7163;50.626;12.922;2023-11-18T08:50:37;23.97;;;14.57;;
14167;SDS011;7163;50.626;12.922;2023-11-18T08:55:41;25.13;;;15.73;;
14167;SDS011;7163;50.626;12.922;2023-11-18T09:00:42;33.67;;;20.50;;
14167;SDS011;7163;50.626;12.922;2023-11-18T09:05:45;26.73;;;16.10;;
14167;SDS011;7163;50.626;12.922;2023-11-18T09:10:56;22.67;;;14.90;;
14167;SDS011;7163;50.626;12.922;2023-11-18T09:15:58;21.20;;;13.97;;
14167;SDS011;7163;50.626;12.922;2023-11-18T09:21:03;24.23;;;14.87;;
14167;SDS011;7163;50.626;12.922;2023-11-18T09:26:05;25.63;;;14.60;;
14167;SDS011;7163;50.626;12.922;2023-11-18T09:31:07;22.47;;;14.70;;
14167;SDS011;7163;50.626;12.922;2023-11-18T09:36:11;22.80;;;14.67;;
14167;SDS011;7163;50.626;12.922;2023-11-18T09:41:12;22.27;;;14.60;;
14167;SDS011;7163;50.626;12.922;2023-11-18T09:46:13;22.60;;;14.60;;
14167;SDS011;7163;50.626;12.922;2023-11-18T09:51:15;23.70;;;14.77;;
14167;SDS011;7163;50.626;12.922;2023-11-18T10:01:38;19.37;;;12.77;;
14167;SDS011;7163;50.626;12.922;2023-11-18T10:06:40;20.87;;;14.83;;
14167;SDS011;7163;50.626;12.922;2023-11-18T10:11:43;18.57;;;11.77;;
14167;SDS011;7163;50.626;12.922;2023-11-18T10:16:46;19.37;;;12.97;;
14167;SDS011;7163;50.626;12.922;2023-11-18T10:21:46;19.27;;;11.85;;
14167;SDS011;7163;50.626;12.922;2023-11-18T10:26:55;19.30;;;12.40;;
14167;SDS011;7163;50.626;12.922;2023-11-18T10:32:03;21.40;;;12.63;;
14167;SDS011;7163;50.626;12.922;2023-11-18T10:37:08;20.80;;;11.53;;
14167;SDS011;7163;50.626;12.922;2023-11-18T10:42:11;18.63;;;11.73;;
14167;SDS011;7163;50.626;12.922;2023-11-18T10:47:12;19.47;;;11.27;;
14167;SDS011;7163;50.626;12.922;2023-11-18T10:52:15;16.20;;;9.80;;
14167;SDS011;7163;50.626;12.922;2023-11-18T10:57:17;10.70;;;7.63;;
14167;SDS011;7163;50.626;12.922;2023-11-18T11:02:18;15.23;;;9.17;;
14167;SDS011;7163;50.626;12.922;2023-11-18T11:07:23;14.00;;;8.37;;
14167;SDS011;7163;50.626;12.922;2023-11-18T11:12:27;12.73;;;7.63;;
14167;SDS011;7163;50.626;12.922;2023-11-18T11:17:33;12.93;;;8.17;;
14167;SDS011;7163;50.626;12.922;2023-11-18T11:28:11;13.73;;;7.60;;
14167;SDS011;7163;50.626;12.922;2023-11-18T11:33:21;11.80;;;7.60;;
14167;SDS011;7163;50.626;12.922;2023-11-18T11:38:23;11.93;;;8.20;;
14167;SDS011;7163;50.626;12.922;2023-11-18T11:43:24;14.40;;;8.73;;
14167;SDS011;7163;50.626;12.922;2023-11-18T11:48:28;15.67;;;8.10;;
14167;SDS011;7163;50.626;12.922;2023-11-18T11:53:29;14.87;;;8.33;;
14167;SDS011;7163;50.626;12.922;2023-11-18T11:58:31;14.43;;;6.87;;
14167;SDS011;7163;50.626;12.922;2023-11-18T12:03:33;9.37;;;6.30;;
14167;SDS011;7163;50.626;12.922;2023-11-18T12:08:38;11.33;;;6.97;;
14167;SDS011;7163;50.626;12.922;2023-11-18T12:13:58;14.73;;;5.67;;
14167;SDS011;7163;50.626;12.922;2023-11-18T12:19:28;14.82;;;7.35;;
14167;SDS011;7163;50.626;12.922;2023-11-18T12:24:30;8.88;;;5.97;;
14167;SDS011;7163;50.626;12.922;2023-11-18T12:29:33;9.73;;;5.00;;
14167;SDS011;7163;50.626;12.922;2023-11-18T12:34:51;7.82;;;4.97;;
14167;SDS011;7163;50.626;12.922;2023-11-18T12:39:59;6.97;;;4.83;;
14167;SDS011;7163;50.626;12.922;2023-11-18T12:50:34;9.97;;;5.53;;
14167;SDS011;7163;50.626;12.922;2023-11-18T12:55:36;9.03;;;5.53;;
14167;SDS011;7163;50.626;12.922;2023-11-18T13:00:40;10.00;;;5.97;;
14167;SDS011;7163;50.626;12.922;2023-11-18T13:05:43;11.70;;;7.73;;
14167;SDS011;7163;50.626;12.922;2023-11-18T13:10:43;14.80;;;8.53;;
14167;SDS011;7163;50.626;12.922;2023-11-18T13:15:45;12.57;;;7.43;;
14167;SDS011;7163;50.626;12.922;2023-11-18T13:20:55;23.10;;;15.37;;
14167;SDS011;7163;50.626;12.922;2023-11-18T13:25:57;27.07;;;17.53;;
14167;SDS011;7163;50.626;12.922;2023-11-18T13:31:00;11.63;;;6.05;;
14167;SDS011;7163;50.626;12.922;2023-11-18T13:36:01;95.53;;;43.53;;
14167;SDS011;7163;50.626;12.922;2023-11-18T13:41:05;7.37;;;3.20;;
14167;SDS011;7163;50.626;12.922;2023-11-18T13:46:12;42.90;;;20.87;;
14167;SDS011;7163;50.626;12.922;2023-11-18T13:51:13;19.37;;;9.60;;
14167;SDS011;7163;50.626;12.922;2023-11-18T13:56:13;9.37;;;6.10;;
14167;SDS011;7163;50.626;12.922;2023-11-18T14:01:15;5.17;;;3.70;;
14167;SDS011;7163;50.626;12.922;2023-11-18T14:06:16;10.23;;;5.13;;
14167;SDS011;7163;50.626;12.922;2023-11-18T14:11:17;5.50;;;3.63;;
14167;SDS011;7163;50.626;12.922;2023-11-18T14:16:17;7.53;;;4.47;;
14167;SDS011;7163;50.626;12.922;2023-11-18T14:21:20;6.07;;;2.87;;
14167;SDS011;7163;50.626;12.922;2023-11-18T14:26:21;4.00;;;2.60;;
14167;SDS011;7163;50.626;12.922;2023-11-18T14:31:21;4.03;;;2.70;;
14167;SDS011;7163;50.626;12.922;2023-11-18T14:36:25;6.43;;;3.20;;
14167;SDS011;7163;50.626;12.922;2023-11-18T14:41:26;5.03;;;3.50;;
14167;SDS011;7163;50.626;12.922;2023-11-18T14:46:26;5.67;;;4.20;;
14167;SDS011;7163;50.626;12.922;2023-11-18T14:51:27;10.27;;;5.40;;
14167;SDS011;7163;50.626;12.922;2023-11-18T14:56:27;7.33;;;4.10;;
14167;SDS011;7163;50.626;12.922;2023-11-18T15:01:28;6.30;;;3.80;;
14167;SDS011;7163;50.626;12.922;2023-11-18T15:06:29;3.43;;;2.60;;
14167;SDS011;7163;50.626;12.922;2023-11-18T15:11:29;8.73;;;4.03;;
14167;SDS011;7163;50.626;12.922;2023-11-18T15:16:31;11.03;;;5.77;;
14167;SDS011;7163;50.626;12.922;2023-11-18T15:21:32;33.33;;;17.93;;
14167;SDS011;7163;50.626;12.922;2023-11-18T15:26:32;52.03;;;23.00;;
14167;SDS011;7163;50.626;12.922;2023-11-18T15:31:33;18.00;;;10.00;;
14167;SDS011;7163;50.626;12.922;2023-11-18T15:36:33;16.88;;;9.48;;
14167;SDS011;7163;50.626;12.922;2023-11-18T15:41:33;20.23;;;11.80;;
14167;SDS011;7163;50.626;12.922;2023-11-18T15:46:35;24.57;;;13.47;;
14167;SDS011;7163;50.626;12.922;2023-11-18T15:51:37;82.23;;;31.10;;
14167;SDS011;7163;50.626;12.922;2023-11-18T15:56:40;96.57;;;40.27;;
14167;SDS011;7163;50.626;12.922;2023-11-18T16:01:46;70.30;;;32.47;;
14167;SDS011;7163;50.626;12.922;2023-11-18T16:06:47;51.93;;;25.03;;
14167;SDS011;7163;50.626;12.922;2023-11-18T16:11:47;66.77;;;31.67;;
14167;SDS011;7163;50.626;12.922;2023-11-18T16:16:49;68.23;;;32.80;;
14167;SDS011;7163;50.626;12.922;2023-11-18T16:21:50;65.20;;;31.03;;
14167;SDS011;7163;50.626;12.922;2023-11-18T16:26:52;65.33;;;35.13;;
14167;SDS011;7163;50.626;12.922;2023-11-18T16:31:54;79.73;;;38.60;;
14167;SDS011;7163;50.626;12.922;2023-11-18T16:36:54;93.83;;;44.50;;
14167;SDS011;7163;50.626;12.922;2023-11-18T16:41:56;96.27;;;41.87;;
14167;SDS011;7163;50.626;12.922;2023-11-18T16:46:56;72.10;;;38.00;;
14167;SDS011;7163;50.626;12.922;2023-11-18T16:51:57;76.72;;;39.25;;
14167;SDS011;7163;50.626;12.922;2023-11-18T16:56:57;84.55;;;43.33;;
14167;SDS011;7163;50.626;12.922;2023-11-18T17:01:57;92.15;;;47.58;;
14167;SDS011;7163;50.626;12.922;2023-11-18T17:06:58;68.82;;;37.47;;
14167;SDS011;7163;50.626;12.922;2023-11-18T17:11:58;56.95;;;33.90;;
14167;SDS011;7163;50.626;12.922;2023-11-18T17:16:59;65.43;;;34.47;;
14167;SDS011;7163;50.626;12.922;2023-11-18T17:21:59;90.37;;;45.63;;
14167;SDS011;7163;50.626;12.922;2023-11-18T17:27:00;42.93;;;25.90;;
14167;SDS011;7163;50.626;12.922;2023-11-18T17:32:03;35.27;;;19.93;;
14167;SDS011;7163;50.626;12.922;2023-11-18T17:37:04;37.67;;;19.73;;
14167;SDS011;7163;50.626;12.922;2023-11-18T17:42:04;29.87;;;17.80;;
14167;SDS011;7163;50.626;12.922;2023-11-18T17:47:05;32.30;;;15.50;;
14167;SDS011;7163;50.626;12.922;2023-11-18T17:52:07;19.90;;;10.87;;
14167;SDS011;7163;50.626;12.922;2023-11-18T17:57:07;14.32;;;8.38;;
14167;SDS011;7163;50.626;12.922;2023-11-18T18:02:08;15.87;;;8.50;;
14167;SDS011;7163;50.626;12.922;2023-11-18T18:07:11;9.30;;;6.53;;
14167;SDS011;7163;50.626;12.922;2023-11-18T18:12:12;12.83;;;6.13;;
14167;SDS011;7163;50.626;12.922;2023-11-18T18:17:13;24.23;;;13.70;;
14167;SDS011;7163;50.626;12.922;2023-11-18T18:22:13;47.77;;;24.47;;
14167;SDS011;7163;50.626;12.922;2023-11-18T18:27:17;27.67;;;15.37;;
14167;SDS011;7163;50.626;12.922;2023-11-18T18:32:19;12.80;;;8.30;;
14167;SDS011;7163;50.626;12.922;2023-11-18T18:37:19;19.23;;;11.07;;
14167;SDS011;7163;50.626;12.922;2023-11-18T18:42:23;22.57;;;12.67;;
14167;SDS011;7163;50.626;12.922;2023-11-18T18:47:24;12.80;;;8.33;;
14167;SDS011;7163;50.626;12.922;2023-11-18T18:52:24;17.57;;;9.67;;
14167;SDS011;7163;50.626;12.922;2023-11-18T18:57:25;14.97;;;9.63;;
14167;SDS011;7163;50.626;12.922;2023-11-18T19:02:25;13.40;;;8.60;;
14167;SDS011;7163;50.626;12.922;2023-11-18T19:07:25;15.13;;;10.50;;
14167;SDS011;7163;50.626;12.922;2023-11-18T19:12:29;16.33;;;11.17;;
14167;SDS011;7163;50.626;12.922;2023-11-18T19:17:29;17.23;;;9.47;;
14167;SDS011;7163;50.626;12.922;2023-11-18T19:22:31;26.53;;;15.43;;
14167;SDS011;7163;50.626;12.922;2023-11-18T19:27:32;27.60;;;15.20;;
14167;SDS011;7163;50.626;12.922;2023-11-18T19:32:32;17.03;;;10.67;;
14167;SDS011;7163;50.626;12.922;2023-11-18T19:37:32;18.27;;;11.70;;
14167;SDS011;7163;50.626;12.922;2023-11-18T19:42:33;14.97;;;10.17;;
14167;SDS011;7163;50.626;12.922;2023-11-18T19:47:34;26.60;;;15.23;;
14167;SDS011;7163;50.626;12.922;2023-11-18T19:52:35;22.87;;;12.97;;
14167;SDS011;7163;50.626;12.922;2023-11-18T19:57:35;18.93;;;11.73;;
14167;SDS011;7163;50.626;12.922;2023-11-18T20:02:36;23.63;;;13.82;;
14167;SDS011;7163;50.626;12.922;2023-11-18T20:07:38;13.03;;;8.63;;
14167;SDS011;7163;50.626;12.922;2023-11-18T20:12:39;15.23;;;9.67;;
14167;SDS011;7163;50.626;12.922;2023-11-18T20:17:39;20.57;;;11.20;;
14167;SDS011;7163;50.626;12.922;2023-11-18T20:22:41;18.23;;;10.33;;
14167;SDS011;7163;50.626;12.922;2023-11-18T20:27:41;16.47;;;10.70;;
14167;SDS011;7163;50.626;12.922;2023-11-18T20:32:42;18.90;;;10.73;;
14167;SDS011;7163;50.626;12.922;2023-11-18T20:37:43;16.50;;;10.37;;
14167;SDS011;7163;50.626;12.922;2023-11-18T20:42:48;17.80;;;11.13;;
14167;SDS011;7163;50.626;12.922;2023-11-18T20:47:48;16.40;;;10.37;;
14167;SDS011;7163;50.626;12.922;2023-11-18T20:52:48;16.90;;;10.57;;
14167;SDS011;7163;50.626;12.922;2023-11-18T20:57:49;16.47;;;9.97;;
14167;SDS011;7163;50.626;12.922;2023-11-18T22:27:54;9.30;;;5.83;;
14167;SDS011;7163;50.626;12.922;2023-11-18T22:32:54;12.53;;;5.80;;
14167;SDS011;7163;50.626;12.922;2023-11-18T22:37:56;11.23;;;5.47;;
14167;SDS011;7163;50.626;12.922;2023-11-18T22:42:56;10.00;;;6.00;;
14167;SDS011;7163;50.626;12.922;2023-11-18T22:47:57;9.87;;;5.77;;
14167;SDS011;7163;50.626;12.922;2023-11-18T22:52:58;9.27;;;5.97;;
14167;SDS011;7163;50.626;12.922;2023-11-18T22:57:58;9.85;;;6.25;;
14167;SDS011;7163;50.626;12.922;2023-11-18T23:02:58;8.93;;;5.60;;
14167;SDS011;7163;50.626;12.922;2023-11-18T23:07:59;13.60;;;6.57;;
14167;SDS011;7163;50.626;12.922;2023-11-18T23:12:59;7.87;;;5.23;;
14167;SDS011;7163;50.626;12.922;2023-11-18T23:17:59;8.73;;;5.72;;
14167;SDS011;7163;50.626;12.922;2023-11-18T23:23:00;9.73;;;5.70;;
14167;SDS011;7163;50.626;12.922;2023-11-18T23:28:01;5.97;;;4.05;;
14167;SDS011;7163;50.626;12.922;2023-11-18T23:33:04;4.97;;;3.67;;
14167;SDS011;7163;50.626;12.922;2023-11-18T23:38:05;3.60;;;3.20;;
14167;SDS011;7163;50.626;12.922;2023-11-18T23:53:25;2.50;;;2.30;;
14167;SDS011;7163;50.626;12.922;2023-11-18T23:58:26;2.50;;;2.40;;
